Time;durP1;ratioP1;P1;durP2;ratioP2;P2;SDS_P1;SDS_P2;PMS_P1;PMS_P2;Temp;Humidity;BMP_temperature;BMP_pressure;BME280_temperature;BME280_humidity;BME280_pressure;Samples;Min_cycle;Max_cycle;Signal;HPM_P1;HPM_P2
2023/10/20 00:02:22;;;;;;;11.95;7.65;;;;;;;5.64;100.00;98592.03;5062277;27;20085;-69
2023/10/20 00:04:48;;;;;;;12.73;8.02;;;;;;;5.68;100.00;98589.06;5094360;27;20082;-69
2023/10/20 00:07:12;;;;;;;11.10;8.05;;;;;;;5.64;100.00;98576.19;5105529;27;20404;-71
2023/10/20 00:09:37;;;;;;;15.27;8.57;;;;;;;5.74;100.00;98590.47;5116587;27;20409;-70
2023/10/20 00:12:04;;;;;;;12.68;7.88;;;;;;;5.79;100.00;98596.25;5117056;27;20102;-70
2023/10/20 00:14:29;;;;;;;11.77;7.40;;;;;;;5.80;100.00;98590.03;5110179;27;20043;-70
2023/10/20 00:16:54;;;;;;;12.55;7.85;;;;;;;5.81;100.00;98583.78;5095381;27;20046;-70
2023/10/20 00:19:18;;;;;;;12.20;8.02;;;;;;;5.87;100.00;98593.09;5078534;27;20042;-67
2023/10/20 00:21:45;;;;;;;11.02;8.52;;;;;;;5.90;100.00;98592.91;5096805;27;20042;-68
2023/10/20 00:24:09;;;;;;;12.68;8.40;;;;;;;5.91;100.00;98598.09;5077945;27;20050;-68
2023/10/20 00:26:34;;;;;;;12.60;8.15;;;;;;;5.90;100.00;98588.47;5078165;27;20039;-68
2023/10/20 00:28:59;;;;;;;11.70;7.80;;;;;;;5.90;100.00;98601.69;5095083;27;20384;-68
2023/10/20 00:31:24;;;;;;;13.98;8.57;;;;;;;5.78;100.00;98595.41;5077483;27;20035;-69
2023/10/20 00:33:50;;;;;;;13.55;7.75;;;;;;;5.75;100.00;98600.09;5077908;27;20042;-69
2023/10/20 00:36:14;;;;;;;13.30;8.23;;;;;;;5.72;100.00;98605.56;5077917;27;20117;-70
2023/10/20 00:38:39;;;;;;;12.60;8.27;;;;;;;5.70;100.00;98596.91;5096283;27;20146;-69
2023/10/20 00:41:04;;;;;;;14.13;8.63;;;;;;;5.69;100.00;98609.25;5060823;27;20043;-70
2023/10/20 00:43:37;;;;;;;11.77;7.68;;;;;;;5.64;100.00;98587.59;5096170;27;20045;-67
2023/10/20 00:46:07;;;;;;;13.02;8.52;;;;;;;5.65;100.00;98591.06;5078080;27;20038;-68
2023/10/20 00:48:33;;;;;;;13.35;8.75;;;;;;;5.61;100.00;98582.50;5095945;27;20039;-67
2023/10/20 00:51:00;;;;;;;11.32;8.20;;;;;;;5.66;100.00;98595.41;5095880;27;20413;-69
2023/10/20 00:53:27;;;;;;;13.38;7.75;;;;;;;5.67;100.00;98591.81;5104277;27;20069;-69
2023/10/20 00:55:52;;;;;;;12.85;8.07;;;;;;;5.71;100.00;98595.94;5094445;27;20049;-68
2023/10/20 00:58:17;;;;;;;13.27;9.05;;;;;;;5.71;100.00;98593.31;5075800;27;20154;-69
2023/10/20 01:00:42;;;;;;;11.75;7.85;;;;;;;5.78;100.00;98599.84;5076862;27;20034;-68
2023/10/20 01:03:07;;;;;;;12.60;8.48;;;;;;;5.76;100.00;98596.47;5097356;27;20047;-68
2023/10/20 01:05:32;;;;;;;12.73;8.75;;;;;;;5.71;100.00;98599.44;5097479;27;20098;-69
2023/10/20 01:07:57;;;;;;;14.23;8.93;;;;;;;5.75;100.00;98592.16;5116983;27;20042;-69
2023/10/20 01:10:22;;;;;;;14.13;9.05;;;;;;;5.75;100.00;98590.34;5097900;27;20564;-67
2023/10/20 01:12:46;;;;;;;12.50;8.68;;;;;;;5.74;100.00;98587.81;5079981;27;20075;-70
2023/10/20 01:15:15;;;;;;;14.20;8.77;;;;;;;5.79;100.00;98593.63;5115989;27;20054;-69
2023/10/20 01:17:40;;;;;;;12.30;8.40;;;;;;;5.83;100.00;98603.03;5080130;27;20091;-68
2023/10/20 01:20:07;;;;;;;13.90;8.32;;;;;;;5.84;100.00;98602.09;5076441;27;20492;-68
2023/10/20 01:22:33;;;;;;;11.43;7.82;;;;;;;5.83;100.00;98598.59;5060096;27;20046;-69
2023/10/20 01:25:00;;;;;;;13.13;8.88;;;;;;;5.89;100.00;98607.94;5109185;27;20034;-67
2023/10/20 01:27:25;;;;;;;14.32;8.70;;;;;;;5.86;100.00;98588.78;5112691;27;20051;-67
2023/10/20 01:29:50;;;;;;;11.40;8.07;;;;;;;5.94;100.00;98595.25;5115858;27;20082;-65
2023/10/20 01:32:15;;;;;;;14.73;9.13;;;;;;;5.87;100.00;98598.41;5080326;27;20205;-66
2023/10/20 01:34:40;;;;;;;15.27;9.25;;;;;;;5.86;100.00;98602.84;5115870;27;20054;-66
2023/10/20 01:37:05;;;;;;;16.13;10.27;;;;;;;5.89;100.00;98607.09;5102039;27;20126;-66
2023/10/20 01:39:29;;;;;;;12.35;8.40;;;;;;;5.85;100.00;98603.78;5095038;27;20039;-66
2023/10/20 01:41:55;;;;;;;13.00;8.27;;;;;;;5.88;100.00;98594.78;5095144;27;20033;-66
2023/10/20 01:44:20;;;;;;;15.02;9.45;;;;;;;5.84;100.00;98595.00;5095519;27;20039;-66
2023/10/20 01:46:49;;;;;;;15.98;8.88;;;;;;;5.95;100.00;98607.53;5093594;27;20046;-65
2023/10/20 01:49:14;;;;;;;12.75;8.82;;;;;;;5.94;100.00;98603.19;5044277;27;20066;-67
2023/10/20 01:51:52;;;;;;;14.15;8.68;;;;;;;6.03;100.00;98610.47;5019207;27;20253;-68
2023/10/20 01:54:17;;;;;;;13.05;8.27;;;;;;;6.06;100.00;98615.56;5069828;27;20047;-67
2023/10/20 01:56:43;;;;;;;14.43;8.60;;;;;;;6.07;100.00;98611.97;5084703;28;20089;-67
2023/10/20 01:59:08;;;;;;;12.20;7.63;;;;;;;6.11;100.00;98621.38;5082165;28;20127;-69
2023/10/20 02:01:33;;;;;;;12.73;8.27;;;;;;;6.13;100.00;98622.09;5093738;27;20031;-71
2023/10/20 02:03:58;;;;;;;12.50;8.88;;;;;;;6.13;100.00;98615.97;5091125;28;20126;-70
2023/10/20 02:06:23;;;;;;;12.45;7.05;;;;;;;6.13;100.00;98626.56;5051963;27;20134;-70
2023/10/20 02:08:47;;;;;;;10.27;6.72;;;;;;;6.11;100.00;98620.50;5084673;27;20558;-71
2023/10/20 02:11:12;;;;;;;10.95;7.05;;;;;;;6.16;100.00;98627.19;5059647;27;20041;-70
2023/10/20 02:13:38;;;;;;;10.63;7.63;;;;;;;6.20;100.00;98625.19;5093804;27;20102;-71
2023/10/20 02:16:05;;;;;;;11.23;7.88;;;;;;;6.18;100.00;98616.50;5094911;27;20051;-71
2023/10/20 02:18:30;;;;;;;13.77;8.88;;;;;;;6.24;100.00;98631.09;5078694;27;20489;-72
2023/10/20 02:20:57;;;;;;;13.68;9.05;;;;;;;6.21;100.00;98624.22;5094543;27;20049;-71
2023/10/20 02:23:22;;;;;;;10.68;7.15;;;;;;;6.21;100.00;98623.41;5060116;28;20031;-72
2023/10/20 02:25:59;;;;;;;9.70;6.90;;;;;;;6.25;100.00;98625.69;5072421;27;20496;-71
2023/10/20 02:28:24;;;;;;;8.52;6.30;;;;;;;6.22;100.00;98633.00;5094268;27;20042;-71
2023/10/20 02:30:49;;;;;;;9.20;5.97;;;;;;;6.19;100.00;98631.44;5094158;27;20083;-71
2023/10/20 02:33:14;;;;;;;8.73;5.43;;;;;;;6.15;100.00;98625.50;5093908;27;20031;-71
2023/10/20 02:35:40;;;;;;;7.88;5.38;;;;;;;6.16;100.00;98632.50;5109910;27;20504;-71
2023/10/20 02:38:06;;;;;;;9.30;6.05;;;;;;;6.19;100.00;98632.28;5090378;28;20451;-71
2023/10/20 02:40:31;;;;;;;6.20;4.88;;;;;;;6.16;100.00;98616.63;5086019;27;20447;-73
2023/10/20 02:42:55;;;;;;;8.48;6.00;;;;;;;6.23;100.00;98632.03;5113743;27;20043;-73
2023/10/20 02:45:20;;;;;;;9.07;5.97;;;;;;;6.22;100.00;98611.81;5112799;27;20042;-72
2023/10/20 02:47:45;;;;;;;6.95;5.50;;;;;;;6.24;100.00;98621.34;5094141;27;20401;-71
2023/10/20 02:50:10;;;;;;;7.78;6.00;;;;;;;6.25;100.00;98625.69;5073442;28;20091;-71
2023/10/20 02:52:35;;;;;;;8.57;5.80;;;;;;;6.19;100.00;98604.97;5104497;27;20126;-71
2023/10/20 02:55:00;;;;;;;7.53;5.63;;;;;;;6.25;100.00;98624.84;5112338;27;20042;-71
2023/10/20 02:57:25;;;;;;;9.75;6.80;;;;;;;6.26;100.00;98630.03;5093776;27;20065;-72
2023/10/20 02:59:50;;;;;;;9.45;6.53;;;;;;;6.25;100.00;98619.56;5076568;27;20035;-71
2023/10/20 03:02:20;;;;;;;7.93;6.35;;;;;;;6.24;100.00;98621.34;5068662;27;20706;-70
2023/10/20 03:04:45;;;;;;;9.18;6.10;;;;;;;6.20;100.00;98622.53;5079958;27;20046;-72
2023/10/20 03:07:09;;;;;;;8.73;6.72;;;;;;;6.15;100.00;98619.34;5097974;27;20043;-72
2023/10/20 03:09:35;;;;;;;10.15;6.13;;;;;;;6.11;100.00;98618.72;5079701;27;20515;-71
2023/10/20 03:12:00;;;;;;;8.98;6.28;;;;;;;6.10;100.00;98614.38;5097475;27;20046;-71
2023/10/20 03:14:26;;;;;;;13.35;7.50;;;;;;;6.14;100.00;98613.22;5086047;27;20485;-73
2023/10/20 03:16:50;;;;;;;9.77;6.82;;;;;;;6.15;100.00;98612.28;5061208;28;20051;-73
2023/10/20 03:19:15;;;;;;;10.38;6.88;;;;;;;6.19;100.00;98623.50;5060042;28;20516;-74
2023/10/20 03:21:39;;;;;;;10.48;6.18;;;;;;;6.19;100.00;98620.84;5060279;28;20509;-71
2023/10/20 03:24:04;;;;;;;8.95;6.72;;;;;;;6.25;100.00;98627.50;5077930;28;20580;-71
2023/10/20 03:26:29;;;;;;;10.98;7.10;;;;;;;6.24;100.00;98623.16;5081932;27;20039;-72
2023/10/20 03:28:54;;;;;;;6.97;5.07;;;;;;;6.26;100.00;98630.03;5041194;28;20084;-71
2023/10/20 03:31:19;;;;;;;6.60;5.13;;;;;;;6.28;100.00;98627.28;5065345;28;20413;-72
2023/10/20 03:33:43;;;;;;;9.23;5.57;;;;;;;6.28;100.00;98632.59;5060330;27;20506;-72
2023/10/20 03:36:09;;;;;;;6.68;5.00;;;;;;;6.24;100.00;98628.44;5043108;28;20039;-69
2023/10/20 03:38:34;;;;;;;6.82;4.47;;;;;;;6.26;100.00;98631.84;5043970;28;20570;-70
2023/10/20 03:41:11;;;;;;;6.95;4.53;;;;;;;6.28;100.00;98635.22;5080139;27;20502;-71
2023/10/20 03:43:36;;;;;;;6.95;5.15;;;;;;;6.23;100.00;98638.19;5080259;27;20042;-72
2023/10/20 03:46:03;;;;;;;7.75;5.38;;;;;;;6.13;100.00;98632.69;5062273;27;20038;-71
2023/10/20 03:48:29;;;;;;;7.93;4.85;;;;;;;6.21;100.00;98633.97;5045669;27;20047;-71
2023/10/20 03:50:54;;;;;;;5.30;4.47;;;;;;;6.21;100.00;98632.16;5097986;27;20070;-72
2023/10/20 03:53:22;;;;;;;7.32;5.40;;;;;;;6.23;100.00;98632.91;5062091;27;20465;-71
2023/10/20 03:55:56;;;;;;;6.97;5.30;;;;;;;6.29;100.00;98636.94;5096909;27;20039;-71
2023/10/20 03:58:22;;;;;;;6.55;4.60;;;;;;;6.25;100.00;98635.44;5078872;27;20054;-72
2023/10/20 04:00:46;;;;;;;6.18;4.68;;;;;;;6.27;100.00;98639.69;5078632;27;20035;-72
2023/10/20 04:03:11;;;;;;;6.13;4.97;;;;;;;6.23;100.00;98640.84;5078827;27;20488;-72
2023/10/20 04:05:35;;;;;;;7.72;4.30;;;;;;;6.29;100.00;98652.81;5078572;27;20034;-71
2023/10/20 04:08:00;;;;;;;6.97;4.80;;;;;;;6.30;100.00;98646.56;5078685;27;20087;-71
2023/10/20 04:10:25;;;;;;;9.88;6.05;;;;;;;6.29;100.00;98642.22;5096804;27;20069;-71
2023/10/20 04:12:49;;;;;;;8.20;5.28;;;;;;;6.29;100.00;98652.81;5078254;27;20043;-72
2023/10/20 04:15:25;;;;;;;6.70;5.10;;;;;;;6.28;100.00;98648.47;5096302;27;20517;-72
2023/10/20 04:17:54;;;;;;;7.07;5.10;;;;;;;6.28;100.00;98651.97;5061449;27;20047;-72
2023/10/20 04:20:20;;;;;;;6.88;5.00;;;;;;;6.24;100.00;98655.75;5097092;27;20042;-71
2023/10/20 04:22:49;;;;;;;7.07;5.03;;;;;;;6.26;100.00;98659.16;5097102;27;20110;-72
2023/10/20 04:25:15;;;;;;;8.98;6.38;;;;;;;6.22;100.00;98654.16;5080782;27;20046;-71
2023/10/20 05:10:38;;;;;;;7.45;5.90;;;;;;;6.12;100.00;98673.34;4938181;28;20058;-72
2023/10/20 05:13:03;;;;;;;7.65;5.00;;;;;;;6.12;100.00;98675.13;4938186;28;20042;-72
2023/10/20 05:15:31;;;;;;;6.15;4.40;;;;;;;6.10;100.00;98672.59;4954448;28;20113;-72
2023/10/20 05:17:57;;;;;;;9.52;5.53;;;;;;;6.13;100.00;98680.31;4938037;28;20054;-73
2023/10/20 05:20:22;;;;;;;9.32;6.05;;;;;;;6.09;100.00;98678.84;4938434;28;20080;-74
2023/10/20 05:22:48;;;;;;;6.75;5.03;;;;;;;6.13;100.00;98680.31;4954448;28;20054;-72
2023/10/20 05:25:14;;;;;;;7.95;5.53;;;;;;;6.13;100.00;98675.03;4938083;28;20417;-73
2023/10/20 05:27:39;;;;;;;10.05;5.55;;;;;;;6.15;100.00;98677.56;4956598;28;20050;-73
2023/10/20 05:30:04;;;;;;;7.28;5.10;;;;;;;6.18;100.00;98685.31;4968734;28;20049;-73
2023/10/20 05:32:31;;;;;;;10.95;6.30;;;;;;;6.18;100.00;98672.94;4977059;28;20133;-73
2023/10/20 05:34:58;;;;;;;7.88;5.65;;;;;;;6.25;100.00;98683.94;4993738;28;20029;-73
2023/10/20 05:37:23;;;;;;;7.47;4.82;;;;;;;6.29;100.00;98676.63;5066981;27;20062;-73
2023/10/20 05:39:47;;;;;;;7.18;4.68;;;;;;;6.31;100.00;98680.03;5078560;27;20043;-73
2023/10/20 05:42:12;;;;;;;6.72;4.72;;;;;;;6.34;100.00;98690.38;5060556;27;20081;-71
2023/10/20 05:44:44;;;;;;;7.50;4.88;;;;;;;6.38;100.00;98682.13;5095449;27;20047;-71
2023/10/20 05:47:08;;;;;;;8.43;4.57;;;;;;;6.40;100.00;98684.66;5077359;28;20054;-72
2023/10/20 05:49:33;;;;;;;7.63;5.05;;;;;;;6.43;100.00;98687.13;5095416;27;20043;-72
2023/10/20 05:51:58;;;;;;;6.47;4.65;;;;;;;6.43;100.00;98673.88;5077555;28;20509;-71
2023/10/20 05:54:24;;;;;;;7.57;4.55;;;;;;;6.46;100.00;98673.63;5061114;28;20552;-70
2023/10/20 05:56:49;;;;;;;8.77;4.22;;;;;;;6.48;100.00;98679.69;5060077;28;20496;-71
2023/10/20 05:59:13;;;;;;;8.23;5.00;;;;;;;6.49;100.00;98674.28;5096269;27;20516;-71
2023/10/20 06:01:38;;;;;;;6.15;4.57;;;;;;;6.50;100.00;98683.91;5095990;28;20413;-71
2023/10/20 06:04:03;;;;;;;6.47;4.60;;;;;;;6.51;100.00;98684.75;5063077;28;20436;-72
2023/10/20 06:06:30;;;;;;;7.65;4.90;;;;;;;6.50;100.00;98678.63;5081635;28;20070;-70
2023/10/20 06:08:55;;;;;;;8.32;4.82;;;;;;;6.44;100.00;98671.09;5096927;27;20063;-72
2023/10/20 06:11:19;;;;;;;7.97;5.03;;;;;;;6.50;100.00;98680.44;5077654;28;20055;-72
2023/10/20 06:13:44;;;;;;;8.57;5.60;;;;;;;6.51;100.00;98679.47;5095310;27;20042;-72
2023/10/20 06:16:09;;;;;;;7.15;4.88;;;;;;;6.54;100.00;98673.97;5077391;28;20506;-71
2023/10/20 06:18:44;;;;;;;10.77;5.35;;;;;;;6.62;100.00;98681.38;5095536;27;20091;-72
2023/10/20 06:21:13;;;;;;;9.20;4.88;;;;;;;6.59;100.00;98669.19;5076889;28;20042;-72
2023/10/20 06:23:39;;;;;;;10.00;5.30;;;;;;;6.66;100.00;98670.41;5059025;28;20035;-72
2023/10/20 06:26:03;;;;;;;6.55;4.32;;;;;;;6.75;100.00;98674.25;5077049;28;20484;-72
2023/10/20 06:28:28;;;;;;;11.00;5.03;;;;;;;6.78;100.00;98681.94;5058704;28;20055;-71
2023/10/20 06:30:54;;;;;;;8.80;4.95;;;;;;;6.79;100.00;98684.50;5076998;28;20054;-70
2023/10/20 06:33:18;;;;;;;9.57;4.93;;;;;;;6.81;100.00;98687.88;5095218;27;20050;-70
2023/10/20 06:36:01;;;;;;;8.05;4.43;;;;;;;6.83;100.00;98685.97;5096294;28;20070;-70
2023/10/20 06:41:19;;;;;;;9.07;5.10;;;;;;;6.72;100.00;98685.06;4996335;28;20547;-71
2023/10/20 06:43:44;;;;;;;16.58;4.63;;;;;;;6.71;100.00;98676.25;4979565;28;20463;-71
2023/10/20 06:46:09;;;;;;;10.20;5.50;;;;;;;6.68;100.00;98681.75;4996414;28;20053;-70
2023/10/20 06:48:34;;;;;;;6.75;4.50;;;;;;;6.67;100.00;98677.41;4947184;28;20099;-70
2023/10/20 06:50:59;;;;;;;6.60;4.88;;;;;;;6.70;100.00;98682.50;4995885;28;20061;-71
2023/10/20 06:53:25;;;;;;;9.05;5.13;;;;;;;6.70;100.00;98686.97;4990738;28;20186;-71
2023/10/20 06:55:51;;;;;;;8.77;5.05;;;;;;;6.66;100.00;98683.66;4960570;28;20049;-70
2023/10/20 06:58:17;;;;;;;6.50;4.70;;;;;;;6.61;100.00;98683.16;4960388;28;20046;-70
2023/10/20 07:00:44;;;;;;;8.40;5.32;;;;;;;6.57;100.00;98682.53;4944322;28;20413;-72
2023/10/20 07:03:08;;;;;;;10.50;5.32;;;;;;;6.55;100.00;98678.28;4978952;28;20099;-71
2023/10/20 07:05:37;;;;;;;10.43;6.65;;;;;;;6.54;100.00;98690.72;4948828;28;20136;-71
2023/10/20 07:08:02;;;;;;;9.77;5.75;;;;;;;6.49;100.00;98692.81;4984024;28;20041;-71
2023/10/20 07:10:27;;;;;;;11.85;6.78;;;;;;;6.56;100.00;98707.31;4969618;28;20534;-72
2023/10/20 07:12:52;;;;;;;14.35;9.40;;;;;;;6.53;100.00;98704.03;5010977;28;20045;-70
2023/10/20 07:15:16;;;;;;;10.45;6.80;;;;;;;6.54;100.00;98711.03;4994012;28;20056;-70
2023/10/20 07:17:41;;;;;;;10.25;7.47;;;;;;;6.53;100.00;98706.69;5043911;28;20047;-71
2023/10/20 07:20:07;;;;;;;10.48;7.15;;;;;;;6.49;100.00;98715.78;5091485;27;20565;-70
2023/10/20 07:22:32;;;;;;;12.85;8.05;;;;;;;6.46;100.00;98721.28;5099452;27;20043;-70
2023/10/20 07:24:57;;;;;;;11.27;7.10;;;;;;;6.54;100.00;98721.63;5080126;27;20039;-70
2023/10/20 07:27:22;;;;;;;10.40;6.57;;;;;;;6.42;100.00;98727.78;5080286;27;20080;-69
2023/10/20 07:29:46;;;;;;;9.95;5.72;;;;;;;6.45;100.00;98733.69;5098678;27;20047;-70
2023/10/20 07:32:12;;;;;;;8.30;5.28;;;;;;;6.44;100.00;98733.78;5062819;27;20524;-71
2023/10/20 07:34:36;;;;;;;11.38;6.63;;;;;;;6.47;100.00;98734.44;5079681;27;20058;-70
2023/10/20 07:37:01;;;;;;;8.57;5.72;;;;;;;6.44;100.00;98737.28;5062401;27;20047;-71
2023/10/20 07:39:26;;;;;;;9.75;5.88;;;;;;;6.44;100.00;98739.94;5045826;27;20119;-71
2023/10/20 07:41:50;;;;;;;11.55;6.32;;;;;;;6.46;100.00;98742.47;5062290;27;20062;-71
2023/10/20 07:44:16;;;;;;;7.82;5.75;;;;;;;6.51;100.00;98743.03;5098036;27;20039;-72
2023/10/20 07:46:43;;;;;;;10.45;5.93;;;;;;;6.63;100.00;98741.31;5098486;27;20397;-72
2023/10/20 07:49:11;;;;;;;10.63;6.28;;;;;;;6.68;99.84;98739.19;5079195;27;20050;-71
2023/10/20 07:51:36;;;;;;;9.63;6.63;;;;;;;6.63;99.83;98736.03;5097269;27;20135;-72
2023/10/20 07:54:01;;;;;;;11.40;6.70;;;;;;;6.64;99.70;98732.44;5079722;27;20084;-72
2023/10/20 07:56:25;;;;;;;10.98;6.78;;;;;;;6.75;99.24;98727.22;5045749;27;20043;-72
2023/10/20 07:58:50;;;;;;;9.52;6.53;;;;;;;6.68;99.25;98723.28;5097786;27;20039;-71
2023/10/20 08:01:15;;;;;;;10.20;6.22;;;;;;;6.69;98.67;98722.34;5097571;27;20043;-71
2023/10/20 08:03:42;;;;;;;9.23;6.60;;;;;;;6.67;98.51;98726.88;5098689;27;20047;-71
2023/10/20 08:06:07;;;;;;;13.57;6.25;;;;;;;6.67;98.22;98726.88;5063662;27;20042;-72
2023/10/20 08:08:32;;;;;;;7.97;6.40;;;;;;;6.74;97.87;98731.66;5080110;27;20043;-73
2023/10/20 08:10:57;;;;;;;10.77;6.35;;;;;;;6.69;97.62;98743.53;5080859;27;20515;-74
2023/10/20 08:13:22;;;;;;;9.60;7.30;;;;;;;6.60;97.46;98737.06;5100221;27;20472;-70
2023/10/20 08:15:46;;;;;;;8.48;6.43;;;;;;;6.62;97.41;98742.28;5097970;27;20096;-71
2023/10/20 08:18:11;;;;;;;9.25;6.60;;;;;;;6.77;97.32;98742.03;5079441;27;20404;-71
2023/10/20 08:20:36;;;;;;;8.63;6.57;;;;;;;7.03;97.16;98750.78;5080078;27;20146;-73
2023/10/20 08:23:01;;;;;;;7.70;6.65;;;;;;;7.43;97.84;98734.69;5059681;28;20043;-73
2023/10/20 08:25:26;;;;;;;8.90;6.55;;;;;;;8.24;97.11;98740.06;5060199;28;20039;-72
2023/10/20 08:27:50;;;;;;;8.88;7.18;;;;;;;9.84;97.09;98728.97;5077251;28;20043;-72
2023/10/20 08:30:15;;;;;;;12.70;7.13;;;;;;;10.65;93.05;98732.78;5077989;28;20040;-71
2023/10/20 08:32:42;;;;;;;7.72;5.90;;;;;;;10.47;86.08;98719.22;5043269;28;20525;-72
2023/10/20 08:35:08;;;;;;;8.48;6.40;;;;;;;10.25;82.15;98722.03;5042672;28;20039;-72
2023/10/20 08:37:32;;;;;;;6.93;5.40;;;;;;;10.14;80.78;98722.91;5066784;27;20035;-70
2023/10/20 08:39:57;;;;;;;10.40;7.25;;;;;;;9.61;77.25;98727.34;5078289;27;20054;-70
2023/10/20 08:42:22;;;;;;;11.20;6.88;;;;;;;9.03;76.20;98729.41;5078642;27;20046;-70
2023/10/20 08:44:47;;;;;;;9.82;7.45;;;;;;;8.53;76.53;98738.69;5096921;27;20091;-71
2023/10/20 08:47:17;;;;;;;8.57;7.07;;;;;;;8.06;77.71;98742.31;5078213;27;20118;-69
2023/10/20 08:49:42;;;;;;;9.25;6.85;;;;;;;7.71;78.91;98742.28;5096264;27;20043;-71
2023/10/20 08:52:08;;;;;;;8.48;6.80;;;;;;;7.68;79.47;98744.31;5060909;27;20066;-70
2023/10/20 08:54:33;;;;;;;9.45;6.43;;;;;;;7.62;79.87;98746.47;5078462;27;20042;-71
2023/10/20 08:56:58;;;;;;;9.05;6.70;;;;;;;7.39;80.17;98741.16;5097305;27;20054;-71
2023/10/20 08:59:22;;;;;;;7.72;5.88;;;;;;;7.28;81.43;98744.59;5097384;27;20035;-71
2023/10/20 09:01:47;;;;;;;9.13;6.85;;;;;;;7.32;81.64;98743.41;5078922;27;20067;-70
2023/10/20 09:04:22;;;;;;;11.93;6.05;;;;;;;7.43;82.18;98742.63;5079681;27;20118;-72
2023/10/20 09:06:47;;;;;;;9.23;6.00;;;;;;;7.25;81.11;98744.78;5054817;28;20048;-71
2023/10/20 09:09:11;;;;;;;9.00;5.93;;;;;;;7.10;81.21;98752.06;5038201;28;20060;-71
2023/10/20 09:11:43;;;;;;;9.05;6.03;;;;;;;7.01;82.23;98751.84;5032101;28;20052;-71
2023/10/20 09:14:07;;;;;;;11.77;7.10;;;;;;;6.84;82.06;98747.75;5017762;28;20048;-71
2023/10/20 09:16:35;;;;;;;10.25;6.72;;;;;;;6.68;83.80;98753.28;5034561;28;20059;-72
2023/10/20 09:19:00;;;;;;;8.98;6.13;;;;;;;6.64;84.31;98754.47;5037453;28;20139;-70
2023/10/20 09:21:28;;;;;;;8.07;5.63;;;;;;;6.66;85.35;98757.81;5030470;28;20044;-70
2023/10/20 09:23:57;;;;;;;12.48;6.07;;;;;;;6.66;86.12;98759.66;5037262;28;20121;-69
2023/10/20 09:26:23;;;;;;;9.15;6.13;;;;;;;6.84;86.69;98759.19;5020179;28;20684;-70
2023/10/20 09:28:49;;;;;;;9.23;6.13;;;;;;;6.90;86.78;98761.41;5020318;28;20060;-72
2023/10/20 09:31:16;;;;;;;10.23;5.90;;;;;;;6.83;86.34;98756.66;5002807;28;20048;-72
2023/10/20 09:33:42;;;;;;;9.45;6.25;;;;;;;6.76;86.11;98753.59;5035582;28;20070;-72
2023/10/20 09:36:07;;;;;;;11.20;6.20;;;;;;;6.67;86.74;98758.66;5017842;28;20040;-72
2023/10/20 09:38:34;;;;;;;10.82;5.95;;;;;;;6.56;87.24;98760.25;5066996;28;20513;-72
2023/10/20 09:41:15;;;;;;;11.88;6.82;;;;;;;6.59;88.62;98761.88;5060542;27;20067;-70
2023/10/20 09:44:00;;;;;;;10.50;5.50;;;;;;;6.73;88.75;98763.56;5095926;27;20039;-72
2023/10/20 09:46:53;;;;;;;9.98;5.78;;;;;;;6.72;88.51;98751.25;5078807;27;20592;-71
2023/10/20 09:49:25;;;;;;;9.23;5.70;;;;;;;6.53;88.59;98760.50;5077799;27;20046;-71
2023/10/20 09:51:50;;;;;;;9.57;5.63;;;;;;;6.45;90.15;98754.00;5059909;28;20103;-71
2023/10/20 09:54:18;;;;;;;9.63;6.40;;;;;;;6.42;90.72;98759.53;5095610;27;20091;-70
2023/10/20 09:56:45;;;;;;;9.55;6.20;;;;;;;6.39;91.21;98757.09;5060229;28;20427;-71
2023/10/20 09:59:15;;;;;;;6.90;5.03;;;;;;;6.27;91.86;98757.94;5086370;28;20058;-70
2023/10/20 10:01:43;;;;;;;8.15;5.35;;;;;;;6.22;92.37;98760.03;5091149;28;20031;-70
2023/10/20 10:04:09;;;;;;;7.03;5.07;;;;;;;6.08;93.14;98756.53;5088373;28;20096;-72
2023/10/20 10:06:35;;;;;;;7.80;5.50;;;;;;;6.09;93.25;98758.25;5079553;28;20095;-70
2023/10/20 10:09:03;;;;;;;10.93;6.28;;;;;;;6.01;94.09;98749.94;5058912;28;20549;-70
2023/10/20 10:11:30;;;;;;;7.47;5.32;;;;;;;6.02;95.42;98758.72;5059502;28;20047;-71
2023/10/20 10:14:01;;;;;;;9.57;6.50;;;;;;;6.06;95.64;98747.84;5063133;28;20032;-71
2023/10/20 10:16:25;;;;;;;8.98;6.18;;;;;;;6.13;96.48;98758.84;5061913;28;20051;-70
2023/10/20 10:18:54;;;;;;;9.63;6.45;;;;;;;6.09;96.37;98755.59;5062836;28;20035;-70
2023/10/20 10:21:24;;;;;;;11.88;7.60;;;;;;;6.12;97.55;98757.16;5050650;28;20039;-72
2023/10/20 10:24:11;;;;;;;17.15;10.10;;;;;;;6.18;98.26;98760.25;5068007;27;20031;-71
2023/10/20 10:26:57;;;;;;;12.45;7.95;;;;;;;6.31;97.82;98757.63;5079753;27;20051;-71
2023/10/20 10:30:09;;;;;;;11.75;6.93;;;;;;;6.35;97.45;98768.84;5046746;27;20054;-71
2023/10/20 10:32:36;;;;;;;12.35;8.02;;;;;;;5.99;97.68;98791.53;5063871;28;20040;-73
2023/10/20 10:35:04;;;;;;;10.40;6.65;;;;;;;5.83;97.63;98782.88;5065107;27;20035;-71
2023/10/20 10:37:33;;;;;;;11.05;6.88;;;;;;;5.61;98.75;98786.09;5050250;27;20039;-71
2023/10/20 10:40:09;;;;;;;10.68;6.50;;;;;;;5.47;99.76;98794.06;5064443;28;20570;-71
2023/10/20 10:42:43;;;;;;;8.55;5.57;;;;;;;5.53;100.00;98785.72;5065240;28;20050;-73
2023/10/20 10:45:30;;;;;;;8.27;5.53;;;;;;;5.52;100.00;98784.06;5060993;28;20088;-72
2023/10/20 10:48:04;;;;;;;8.48;4.97;;;;;;;5.68;100.00;98790.03;5061896;28;20130;-73
2023/10/20 10:50:29;;;;;;;8.80;6.25;;;;;;;5.83;100.00;98780.25;5043322;28;20050;-73
2023/10/20 10:52:53;;;;;;;6.22;3.67;;;;;;;6.04;100.00;98770.91;5049363;28;20047;-73
2023/10/20 10:55:18;;;;;;;6.57;4.78;;;;;;;5.99;100.00;98773.00;5079162;28;20049;-72
2023/10/20 10:57:43;;;;;;;7.97;5.07;;;;;;;5.81;100.00;98783.00;5074918;28;20043;-74
2023/10/20 11:00:09;;;;;;;7.45;5.25;;;;;;;5.70;100.00;98779.34;5043783;28;20034;-71
2023/10/20 11:02:34;;;;;;;12.93;6.63;;;;;;;5.69;100.00;98788.22;5089342;27;20034;-69
2023/10/20 11:05:00;;;;;;;8.68;6.25;;;;;;;5.66;100.00;98785.78;5086574;27;20047;-70
2023/10/20 11:07:25;;;;;;;9.25;6.15;;;;;;;5.66;100.00;98786.63;5084360;27;20033;-71
2023/10/20 11:09:51;;;;;;;10.80;6.45;;;;;;;5.73;100.00;98789.75;5059414;28;20039;-71
2023/10/20 11:12:15;;;;;;;7.75;5.97;;;;;;;5.76;100.00;98781.56;5051128;27;20057;-75
2023/10/20 11:14:40;;;;;;;9.52;6.40;;;;;;;5.77;100.00;98781.47;5060414;28;20058;-70
2023/10/20 11:17:05;;;;;;;10.45;6.47;;;;;;;5.82;100.00;98794.41;5061890;28;20516;-70
2023/10/20 11:19:30;;;;;;;9.02;6.28;;;;;;;5.81;100.00;98795.38;5064058;27;20131;-70
2023/10/20 11:21:55;;;;;;;9.77;6.55;;;;;;;5.79;100.00;98784.03;5063353;27;20035;-69
2023/10/20 11:24:28;;;;;;;9.50;6.43;;;;;;;5.78;100.00;98795.56;5061600;28;20062;-71
2023/10/20 11:27:02;;;;;;;13.23;7.15;;;;;;;5.72;100.00;98806.56;5064975;28;20078;-69
2023/10/20 11:29:31;;;;;;;7.90;4.80;;;;;;;5.86;100.00;98803.84;5081512;27;20035;-70
2023/10/20 11:32:09;;;;;;;9.18;6.00;;;;;;;5.82;100.00;98795.28;5061827;27;20564;-70
2023/10/20 11:34:35;;;;;;;13.48;5.20;;;;;;;5.69;100.00;98797.00;5082905;27;20055;-70
2023/10/20 11:37:00;;;;;;;12.20;6.70;;;;;;;5.53;100.00;98795.47;5059536;28;20035;-70
2023/10/20 11:39:27;;;;;;;9.32;6.97;;;;;;;5.20;100.00;98791.38;5080243;27;20481;-70
2023/10/20 11:41:53;;;;;;;10.45;6.65;;;;;;;5.15;100.00;98804.03;5077697;27;20044;-69
2023/10/20 11:44:20;;;;;;;8.70;6.20;;;;;;;5.06;100.00;98792.25;5081243;27;20039;-70
2023/10/20 11:46:45;;;;;;;7.53;5.45;;;;;;;5.02;100.00;98790.75;5080453;27;20401;-69
2023/10/20 11:49:13;;;;;;;9.50;5.63;;;;;;;4.94;100.00;98802.72;5082203;27;20410;-69
2023/10/20 11:51:41;;;;;;;10.23;6.45;;;;;;;4.90;100.00;98793.28;5079978;27;20039;-68
2023/10/20 11:54:06;;;;;;;10.15;6.20;;;;;;;4.84;100.00;98796.31;5074133;27;20043;-69
2023/10/20 11:56:30;;;;;;;10.02;7.07;;;;;;;4.93;100.00;98798.41;5045312;27;20050;-69
2023/10/20 11:58:55;;;;;;;8.77;6.15;;;;;;;4.97;100.00;98789.31;5077729;27;20454;-70
2023/10/20 12:01:20;;;;;;;10.38;6.95;;;;;;;5.07;100.00;98791.31;5077043;28;20043;-69
2023/10/20 12:03:44;;;;;;;8.60;5.95;;;;;;;5.12;100.00;98793.66;5058613;28;20043;-68
2023/10/20 12:06:09;;;;;;;11.05;7.35;;;;;;;5.19;100.00;98788.84;5042153;28;20039;-68
2023/10/20 12:08:34;;;;;;;9.18;6.53;;;;;;;5.19;100.00;98787.06;5076741;28;20494;-68
2023/10/20 12:11:00;;;;;;;11.65;7.60;;;;;;;5.23;100.00;98800.91;5076525;28;20103;-68
2023/10/20 12:13:25;;;;;;;11.10;7.47;;;;;;;5.25;100.00;98799.88;5076611;28;20039;-68
2023/10/20 12:15:50;;;;;;;13.90;8.30;;;;;;;5.26;100.00;98795.44;5076776;28;20496;-68